sensor_id;sensor_type;location;lat;lon;timestamp;P1;durP1;ratioP1;P2;durP2;ratioP2
19969;SDS011;10146;47.754;9.566;2023-03-05T00:01:29;50.15;;;29.20;;
19969;SDS011;10146;47.754;9.566;2023-03-05T00:03:59;47.85;;;30.50;;
19969;SDS011;10146;47.754;9.566;2023-03-05T00:06:27;47.85;;;29.25;;
19969;SDS011;10146;47.754;9.566;2023-03-05T00:08:53;49.30;;;29.42;;
19969;SDS011;10146;47.754;9.566;2023-03-05T00:11:22;46.17;;;29.20;;
19969;SDS011;10146;47.754;9.566;2023-03-05T00:13:52;43.83;;;29.30;;
19969;SDS011;10146;47.754;9.566;2023-03-05T00:16:19;54.25;;;30.60;;
19969;SDS011;10146;47.754;9.566;2023-03-05T00:18:45;49.78;;;29.77;;
19969;SDS011;10146;47.754;9.566;2023-03-05T00:21:53;52.40;;;30.17;;
19969;SDS011;10146;47.754;9.566;2023-03-05T00:24:02;48.80;;;30.52;;
19969;SDS011;10146;47.754;9.566;2023-03-05T00:26:30;50.20;;;31.55;;
19969;SDS011;10146;47.754;9.566;2023-03-05T00:28:58;48.90;;;29.50;;
19969;SDS011;10146;47.754;9.566;2023-03-05T00:31:25;44.35;;;29.92;;
19969;SDS011;10146;47.754;9.566;2023-03-05T00:33:57;50.25;;;30.30;;
19969;SDS011;10146;47.754;9.566;2023-03-05T00:36:24;49.72;;;30.33;;
19969;SDS011;10146;47.754;9.566;2023-03-05T00:38:52;48.33;;;29.00;;
19969;SDS011;10146;47.754;9.566;2023-03-05T00:41:18;47.72;;;29.67;;
19969;SDS011;10146;47.754;9.566;2023-03-05T00:43:44;49.55;;;29.17;;
19969;SDS011;10146;47.754;9.566;2023-03-05T00:46:10;50.58;;;30.83;;
19969;SDS011;10146;47.754;9.566;2023-03-05T00:48:36;49.05;;;30.83;;
19969;SDS011;10146;47.754;9.566;2023-03-05T00:51:02;51.63;;;29.27;;
19969;SDS011;10146;47.754;9.566;2023-03-05T00:53:28;44.72;;;28.88;;
19969;SDS011;10146;47.754;9.566;2023-03-05T00:55:53;48.95;;;28.70;;
19969;SDS011;10146;47.754;9.566;2023-03-05T00:58:19;50.00;;;29.65;;
19969;SDS011;10146;47.754;9.566;2023-03-05T01:00:44;50.20;;;30.67;;
19969;SDS011;10146;47.754;9.566;2023-03-05T01:03:10;51.72;;;31.67;;
19969;SDS011;10146;47.754;9.566;2023-03-05T01:05:36;47.15;;;29.90;;
19969;SDS011;10146;47.754;9.566;2023-03-05T01:08:01;50.72;;;31.40;;
19969;SDS011;10146;47.754;9.566;2023-03-05T01:10:27;44.47;;;28.52;;
19969;SDS011;10146;47.754;9.566;2023-03-05T01:12:54;51.70;;;30.80;;
19969;SDS011;10146;47.754;9.566;2023-03-05T01:15:20;48.67;;;29.20;;
19969;SDS011;10146;47.754;9.566;2023-03-05T01:17:47;50.78;;;30.73;;
19969;SDS011;10146;47.754;9.566;2023-03-05T01:20:13;52.78;;;29.15;;
19969;SDS011;10146;47.754;9.566;2023-03-05T01:22:41;49.80;;;29.92;;
19969;SDS011;10146;47.754;9.566;2023-03-05T01:25:07;47.88;;;29.85;;
19969;SDS011;10146;47.754;9.566;2023-03-05T01:27:33;51.65;;;31.90;;
19969;SDS011;10146;47.754;9.566;2023-03-05T01:29:59;48.28;;;29.83;;
19969;SDS011;10146;47.754;9.566;2023-03-05T01:32:25;54.28;;;31.02;;
19969;SDS011;10146;47.754;9.566;2023-03-05T01:34:53;56.28;;;31.98;;
19969;SDS011;10146;47.754;9.566;2023-03-05T01:37:18;51.35;;;31.40;;
19969;SDS011;10146;47.754;9.566;2023-03-05T01:39:44;54.22;;;31.10;;
19969;SDS011;10146;47.754;9.566;2023-03-05T01:42:09;52.10;;;31.08;;
19969;SDS011;10146;47.754;9.566;2023-03-05T01:44:35;51.20;;;31.67;;
19969;SDS011;10146;47.754;9.566;2023-03-05T01:47:00;52.10;;;31.35;;
19969;SDS011;10146;47.754;9.566;2023-03-05T01:49:27;57.47;;;32.88;;
19969;SDS011;10146;47.754;9.566;2023-03-05T01:52:11;51.83;;;31.42;;
19969;SDS011;10146;47.754;9.566;2023-03-05T01:54:48;54.30;;;31.77;;
19969;SDS011;10146;47.754;9.566;2023-03-05T01:57:21;51.35;;;31.35;;
19969;SDS011;10146;47.754;9.566;2023-03-05T01:59:52;54.75;;;32.78;;
19969;SDS011;10146;47.754;9.566;2023-03-05T02:02:25;56.95;;;32.65;;
19969;SDS011;10146;47.754;9.566;2023-03-05T02:04:54;50.13;;;30.65;;
19969;SDS011;10146;47.754;9.566;2023-03-05T02:07:24;49.72;;;31.85;;
19969;SDS011;10146;47.754;9.566;2023-03-05T02:09:50;52.92;;;31.92;;
19969;SDS011;10146;47.754;9.566;2023-03-05T02:12:16;53.38;;;31.02;;
19969;SDS011;10146;47.754;9.566;2023-03-05T02:14:43;49.30;;;30.20;;
19969;SDS011;10146;47.754;9.566;2023-03-05T02:17:10;51.80;;;31.73;;
19969;SDS011;10146;47.754;9.566;2023-03-05T02:19:47;51.47;;;30.00;;
19969;SDS011;10146;47.754;9.566;2023-03-05T02:22:15;52.78;;;31.20;;
19969;SDS011;10146;47.754;9.566;2023-03-05T02:24:42;50.58;;;30.85;;
19969;SDS011;10146;47.754;9.566;2023-03-05T02:27:08;47.90;;;29.98;;
19969;SDS011;10146;47.754;9.566;2023-03-05T02:29:34;51.20;;;31.27;;
19969;SDS011;10146;47.754;9.566;2023-03-05T02:32:04;50.95;;;30.00;;
19969;SDS011;10146;47.754;9.566;2023-03-05T02:34:30;52.20;;;31.50;;
19969;SDS011;10146;47.754;9.566;2023-03-05T02:36:56;49.33;;;30.02;;
19969;SDS011;10146;47.754;9.566;2023-03-05T02:39:22;49.58;;;29.75;;
19969;SDS011;10146;47.754;9.566;2023-03-05T02:41:47;51.80;;;31.88;;
19969;SDS011;10146;47.754;9.566;2023-03-05T02:44:13;51.80;;;30.83;;
19969;SDS011;10146;47.754;9.566;2023-03-05T02:46:39;52.42;;;31.33;;
19969;SDS011;10146;47.754;9.566;2023-03-05T02:49:04;47.72;;;30.73;;
19969;SDS011;10146;47.754;9.566;2023-03-05T02:51:30;51.88;;;31.65;;
19969;SDS011;10146;47.754;9.566;2023-03-05T02:53:55;52.90;;;31.40;;
19969;SDS011;10146;47.754;9.566;2023-03-05T02:56:21;48.92;;;30.98;;
19969;SDS011;10146;47.754;9.566;2023-03-05T02:58:47;54.13;;;31.58;;
19969;SDS011;10146;47.754;9.566;2023-03-05T03:01:12;53.33;;;30.83;;
19969;SDS011;10146;47.754;9.566;2023-03-05T03:03:38;55.75;;;32.50;;
19969;SDS011;10146;47.754;9.566;2023-03-05T03:06:04;57.35;;;32.80;;
19969;SDS011;10146;47.754;9.566;2023-03-05T03:08:30;53.03;;;32.45;;
19969;SDS011;10146;47.754;9.566;2023-03-05T03:10:55;56.92;;;34.70;;
19969;SDS011;10146;47.754;9.566;2023-03-05T03:13:27;57.28;;;33.40;;
19969;SDS011;10146;47.754;9.566;2023-03-05T03:16:06;52.88;;;32.13;;
19969;SDS011;10146;47.754;9.566;2023-03-05T03:18:34;54.60;;;32.22;;
19969;SDS011;10146;47.754;9.566;2023-03-05T03:21:00;58.58;;;33.78;;
19969;SDS011;10146;47.754;9.566;2023-03-05T03:23:26;62.08;;;34.08;;
19969;SDS011;10146;47.754;9.566;2023-03-05T03:25:52;57.42;;;33.75;;
19969;SDS011;10146;47.754;9.566;2023-03-05T03:28:17;57.65;;;34.13;;
19969;SDS011;10146;47.754;9.566;2023-03-05T03:30:43;53.17;;;33.35;;
19969;SDS011;10146;47.754;9.566;2023-03-05T03:33:09;53.65;;;32.42;;
19969;SDS011;10146;47.754;9.566;2023-03-05T03:35:35;59.53;;;33.42;;
19969;SDS011;10146;47.754;9.566;2023-03-05T03:38:00;55.63;;;32.65;;
19969;SDS011;10146;47.754;9.566;2023-03-05T03:40:26;57.00;;;32.40;;
19969;SDS011;10146;47.754;9.566;2023-03-05T03:42:52;54.55;;;33.83;;
19969;SDS011;10146;47.754;9.566;2023-03-05T03:45:18;59.40;;;33.75;;
19969;SDS011;10146;47.754;9.566;2023-03-05T03:47:46;55.78;;;34.22;;
19969;SDS011;10146;47.754;9.566;2023-03-05T03:50:16;53.80;;;34.22;;
19969;SDS011;10146;47.754;9.566;2023-03-05T03:52:42;56.97;;;33.58;;
19969;SDS011;10146;47.754;9.566;2023-03-05T03:55:08;56.78;;;34.40;;
19969;SDS011;10146;47.754;9.566;2023-03-05T03:57:35;55.13;;;32.60;;
19969;SDS011;10146;47.754;9.566;2023-03-05T04:00:01;61.55;;;34.85;;
19969;SDS011;10146;47.754;9.566;2023-03-05T04:02:30;57.10;;;33.45;;
19969;SDS011;10146;47.754;9.566;2023-03-05T04:04:57;55.85;;;32.97;;
19969;SDS011;10146;47.754;9.566;2023-03-05T04:07:22;52.30;;;33.40;;
19969;SDS011;10146;47.754;9.566;2023-03-05T04:09:48;59.08;;;33.90;;
19969;SDS011;10146;47.754;9.566;2023-03-05T04:12:14;53.58;;;31.58;;
19969;SDS011;10146;47.754;9.566;2023-03-05T04:14:42;51.35;;;32.80;;
19969;SDS011;10146;47.754;9.566;2023-03-05T04:17:11;56.70;;;34.30;;
19969;SDS011;10146;47.754;9.566;2023-03-05T04:19:38;55.75;;;33.67;;
19969;SDS011;10146;47.754;9.566;2023-03-05T04:22:04;56.58;;;33.83;;
19969;SDS011;10146;47.754;9.566;2023-03-05T04:24:31;57.45;;;34.03;;
19969;SDS011;10146;47.754;9.566;2023-03-05T04:26:57;58.47;;;34.80;;
19969;SDS011;10146;47.754;9.566;2023-03-05T04:29:22;58.28;;;35.85;;
19969;SDS011;10146;47.754;9.566;2023-03-05T04:31:48;55.97;;;34.13;;
19969;SDS011;10146;47.754;9.566;2023-03-05T04:34:13;59.70;;;34.30;;
19969;SDS011;10146;47.754;9.566;2023-03-05T04:36:39;58.03;;;35.00;;
19969;SDS011;10146;47.754;9.566;2023-03-05T04:39:05;62.92;;;35.55;;
19969;SDS011;10146;47.754;9.566;2023-03-05T04:41:30;59.83;;;35.00;;
19969;SDS011;10146;47.754;9.566;2023-03-05T04:43:56;58.22;;;34.42;;
19969;SDS011;10146;47.754;9.566;2023-03-05T04:46:21;59.92;;;36.20;;
19969;SDS011;10146;47.754;9.566;2023-03-05T04:48:47;60.72;;;37.53;;
19969;SDS011;10146;47.754;9.566;2023-03-05T04:51:13;64.70;;;37.17;;
19969;SDS011;10146;47.754;9.566;2023-03-05T04:53:39;63.65;;;37.25;;
19969;SDS011;10146;47.754;9.566;2023-03-05T04:56:04;61.47;;;36.20;;
19969;SDS011;10146;47.754;9.566;2023-03-05T04:58:30;55.22;;;33.42;;
19969;SDS011;10146;47.754;9.566;2023-03-05T05:01:02;63.30;;;35.78;;
19969;SDS011;10146;47.754;9.566;2023-03-05T05:03:29;62.47;;;36.85;;
19969;SDS011;10146;47.754;9.566;2023-03-05T05:05:56;59.10;;;35.67;;
19969;SDS011;10146;47.754;9.566;2023-03-05T05:08:23;61.40;;;36.47;;
19969;SDS011;10146;47.754;9.566;2023-03-05T05:10:55;62.08;;;37.15;;
19969;SDS011;10146;47.754;9.566;2023-03-05T05:13:21;59.80;;;35.42;;
19969;SDS011;10146;47.754;9.566;2023-03-05T05:15:47;59.42;;;34.63;;
19969;SDS011;10146;47.754;9.566;2023-03-05T05:18:12;61.60;;;35.88;;
19969;SDS011;10146;47.754;9.566;2023-03-05T05:20:38;59.10;;;35.08;;
19969;SDS011;10146;47.754;9.566;2023-03-05T05:23:03;60.33;;;35.72;;
19969;SDS011;10146;47.754;9.566;2023-03-05T05:25:29;57.83;;;34.33;;
19969;SDS011;10146;47.754;9.566;2023-03-05T05:27:54;63.15;;;38.00;;
19969;SDS011;10146;47.754;9.566;2023-03-05T05:30:20;68.25;;;39.42;;
19969;SDS011;10146;47.754;9.566;2023-03-05T05:32:45;64.10;;;37.45;;
19969;SDS011;10146;47.754;9.566;2023-03-05T05:35:11;62.92;;;37.95;;
19969;SDS011;10146;47.754;9.566;2023-03-05T05:37:37;62.97;;;37.47;;
19969;SDS011;10146;47.754;9.566;2023-03-05T05:40:02;65.63;;;37.55;;
19969;SDS011;10146;47.754;9.566;2023-03-05T05:42:29;68.47;;;38.67;;
19969;SDS011;10146;47.754;9.566;2023-03-05T05:44:55;62.92;;;37.38;;
19969;SDS011;10146;47.754;9.566;2023-03-05T05:47:20;63.28;;;38.00;;
19969;SDS011;10146;47.754;9.566;2023-03-05T05:49:46;63.40;;;37.25;;
19969;SDS011;10146;47.754;9.566;2023-03-05T05:52:13;63.00;;;36.85;;
19969;SDS011;10146;47.754;9.566;2023-03-05T05:54:41;62.47;;;37.78;;
19969;SDS011;10146;47.754;9.566;2023-03-05T05:57:07;59.70;;;36.55;;
19969;SDS011;10146;47.754;9.566;2023-03-05T05:59:33;61.17;;;35.55;;
19969;SDS011;10146;47.754;9.566;2023-03-05T06:01:58;59.92;;;36.22;;
19969;SDS011;10146;47.754;9.566;2023-03-05T06:04:24;68.47;;;39.15;;
19969;SDS011;10146;47.754;9.566;2023-03-05T06:06:49;61.30;;;35.72;;
19969;SDS011;10146;47.754;9.566;2023-03-05T06:09:15;68.15;;;39.05;;
19969;SDS011;10146;47.754;9.566;2023-03-05T06:11:41;65.80;;;37.95;;
19969;SDS011;10146;47.754;9.566;2023-03-05T06:14:06;64.97;;;38.53;;
19969;SDS011;10146;47.754;9.566;2023-03-05T06:16:34;64.80;;;37.58;;
19969;SDS011;10146;47.754;9.566;2023-03-05T06:18:59;60.35;;;38.40;;
19969;SDS011;10146;47.754;9.566;2023-03-05T06:21:28;62.55;;;37.17;;
19969;SDS011;10146;47.754;9.566;2023-03-05T06:23:54;60.55;;;36.72;;
19969;SDS011;10146;47.754;9.566;2023-03-05T06:26:20;59.00;;;34.95;;
19969;SDS011;10146;47.754;9.566;2023-03-05T06:28:46;67.32;;;39.22;;
19969;SDS011;10146;47.754;9.566;2023-03-05T06:31:16;64.97;;;40.05;;
19969;SDS011;10146;47.754;9.566;2023-03-05T06:33:45;63.85;;;38.63;;
19969;SDS011;10146;47.754;9.566;2023-03-05T06:36:13;66.65;;;38.28;;
19969;SDS011;10146;47.754;9.566;2023-03-05T06:38:40;63.33;;;37.50;;
19969;SDS011;10146;47.754;9.566;2023-03-05T06:41:07;62.85;;;36.72;;
19969;SDS011;10146;47.754;9.566;2023-03-05T06:43:36;61.60;;;37.35;;
19969;SDS011;10146;47.754;9.566;2023-03-05T06:46:03;60.42;;;35.55;;
19969;SDS011;10146;47.754;9.566;2023-03-05T06:48:31;58.83;;;35.45;;
19969;SDS011;10146;47.754;9.566;2023-03-05T06:50:57;59.97;;;35.65;;
19969;SDS011;10146;47.754;9.566;2023-03-05T06:53:25;59.58;;;36.08;;
19969;SDS011;10146;47.754;9.566;2023-03-05T06:55:51;62.17;;;37.20;;
19969;SDS011;10146;47.754;9.566;2023-03-05T06:58:18;64.28;;;37.15;;
19969;SDS011;10146;47.754;9.566;2023-03-05T07:00:44;62.13;;;37.58;;
19969;SDS011;10146;47.754;9.566;2023-03-05T07:03:10;63.97;;;36.85;;
19969;SDS011;10146;47.754;9.566;2023-03-05T07:05:39;61.65;;;35.78;;
19969;SDS011;10146;47.754;9.566;2023-03-05T07:08:05;58.72;;;36.72;;
19969;SDS011;10146;47.754;9.566;2023-03-05T07:10:31;61.65;;;36.88;;
19969;SDS011;10146;47.754;9.566;2023-03-05T07:12:56;60.78;;;37.47;;
19969;SDS011;10146;47.754;9.566;2023-03-05T07:15:22;59.50;;;37.17;;
19969;SDS011;10146;47.754;9.566;2023-03-05T07:17:48;63.70;;;38.17;;
19969;SDS011;10146;47.754;9.566;2023-03-05T07:20:14;65.00;;;37.60;;
19969;SDS011;10146;47.754;9.566;2023-03-05T07:22:40;65.75;;;38.97;;
19969;SDS011;10146;47.754;9.566;2023-03-05T07:25:05;63.17;;;38.22;;
19969;SDS011;10146;47.754;9.566;2023-03-05T07:27:35;69.95;;;40.63;;
19969;SDS011;10146;47.754;9.566;2023-03-05T07:30:02;70.53;;;41.88;;
19969;SDS011;10146;47.754;9.566;2023-03-05T07:32:28;64.05;;;38.97;;
19969;SDS011;10146;47.754;9.566;2023-03-05T07:34:53;61.22;;;38.00;;
19969;SDS011;10146;47.754;9.566;2023-03-05T07:37:19;61.05;;;36.70;;
19969;SDS011;10146;47.754;9.566;2023-03-05T07:39:45;62.35;;;37.72;;
19969;SDS011;10146;47.754;9.566;2023-03-05T07:42:10;63.90;;;38.10;;
19969;SDS011;10146;47.754;9.566;2023-03-05T07:44:36;64.90;;;37.38;;
19969;SDS011;10146;47.754;9.566;2023-03-05T07:47:03;63.10;;;37.33;;
19969;SDS011;10146;47.754;9.566;2023-03-05T07:49:29;60.95;;;36.20;;
19969;SDS011;10146;47.754;9.566;2023-03-05T07:51:54;63.30;;;36.35;;
19969;SDS011;10146;47.754;9.566;2023-03-05T07:54:20;58.33;;;34.53;;
19969;SDS011;10146;47.754;9.566;2023-03-05T07:56:46;56.08;;;33.90;;
19969;SDS011;10146;47.754;9.566;2023-03-05T07:59:12;60.88;;;35.05;;
19969;SDS011;10146;47.754;9.566;2023-03-05T08:01:38;57.67;;;35.80;;
19969;SDS011;10146;47.754;9.566;2023-03-05T08:04:05;60.80;;;33.22;;
19969;SDS011;10146;47.754;9.566;2023-03-05T08:06:32;55.25;;;33.50;;
19969;SDS011;10146;47.754;9.566;2023-03-05T08:08:57;57.05;;;33.10;;
19969;SDS011;10146;47.754;9.566;2023-03-05T08:11:23;56.38;;;34.20;;
19969;SDS011;10146;47.754;9.566;2023-03-05T08:13:49;58.90;;;33.75;;
19969;SDS011;10146;47.754;9.566;2023-03-05T08:16:17;57.40;;;34.42;;
19969;SDS011;10146;47.754;9.566;2023-03-05T08:18:45;64.82;;;36.63;;
19969;SDS011;10146;47.754;9.566;2023-03-05T08:21:17;55.42;;;33.80;;
19969;SDS011;10146;47.754;9.566;2023-03-05T08:23:45;57.28;;;33.20;;
19969;SDS011;10146;47.754;9.566;2023-03-05T08:26:11;56.60;;;33.13;;
19969;SDS011;10146;47.754;9.566;2023-03-05T08:28:39;55.03;;;34.30;;
19969;SDS011;10146;47.754;9.566;2023-03-05T08:31:08;58.50;;;34.85;;
19969;SDS011;10146;47.754;9.566;2023-03-05T08:33:35;51.92;;;32.35;;
19969;SDS011;10146;47.754;9.566;2023-03-05T08:36:02;52.08;;;32.90;;
19969;SDS011;10146;47.754;9.566;2023-03-05T08:38:28;51.38;;;31.45;;
19969;SDS011;10146;47.754;9.566;2023-03-05T08:40:53;51.35;;;31.95;;
19969;SDS011;10146;47.754;9.566;2023-03-05T08:43:19;52.28;;;32.38;;
19969;SDS011;10146;47.754;9.566;2023-03-05T08:45:45;50.90;;;32.28;;
19969;SDS011;10146;47.754;9.566;2023-03-05T08:48:11;52.30;;;32.08;;
19969;SDS011;10146;47.754;9.566;2023-03-05T08:50:37;52.55;;;30.75;;
19969;SDS011;10146;47.754;9.566;2023-03-05T08:53:03;51.58;;;31.05;;
19969;SDS011;10146;47.754;9.566;2023-03-05T08:55:28;51.78;;;31.33;;
19969;SDS011;10146;47.754;9.566;2023-03-05T08:57:54;51.50;;;30.17;;
19969;SDS011;10146;47.754;9.566;2023-03-05T09:00:19;53.22;;;31.83;;
19969;SDS011;10146;47.754;9.566;2023-03-05T09:02:45;53.47;;;32.10;;
19969;SDS011;10146;47.754;9.566;2023-03-05T09:05:11;51.20;;;31.33;;
19969;SDS011;10146;47.754;9.566;2023-03-05T09:07:36;51.33;;;31.65;;
19969;SDS011;10146;47.754;9.566;2023-03-05T09:10:03;45.50;;;29.70;;
19969;SDS011;10146;47.754;9.566;2023-03-05T09:12:31;54.78;;;30.95;;
19969;SDS011;10146;47.754;9.566;2023-03-05T09:14:57;48.85;;;31.88;;
19969;SDS011;10146;47.754;9.566;2023-03-05T09:17:22;48.78;;;30.50;;
19969;SDS011;10146;47.754;9.566;2023-03-05T09:19:48;48.45;;;30.30;;
19969;SDS011;10146;47.754;9.566;2023-03-05T09:22:14;49.10;;;30.83;;
19969;SDS011;10146;47.754;9.566;2023-03-05T09:24:39;52.60;;;30.40;;
19969;SDS011;10146;47.754;9.566;2023-03-05T09:27:06;50.55;;;30.33;;
19969;SDS011;10146;47.754;9.566;2023-03-05T09:29:31;52.35;;;32.17;;
19969;SDS011;10146;47.754;9.566;2023-03-05T09:31:57;47.53;;;29.77;;
19969;SDS011;10146;47.754;9.566;2023-03-05T09:34:22;46.63;;;30.45;;
19969;SDS011;10146;47.754;9.566;2023-03-05T09:36:48;45.58;;;29.33;;
19969;SDS011;10146;47.754;9.566;2023-03-05T09:39:14;45.97;;;28.85;;
19969;SDS011;10146;47.754;9.566;2023-03-05T09:41:53;43.80;;;29.15;;
19969;SDS011;10146;47.754;9.566;2023-03-05T09:44:42;47.30;;;30.13;;
19969;SDS011;10146;47.754;9.566;2023-03-05T09:49:57;46.55;;;28.95;;
19969;SDS011;10146;47.754;9.566;2023-03-05T09:52:40;42.22;;;27.48;;
19969;SDS011;10146;47.754;9.566;2023-03-05T09:55:12;46.30;;;27.60;;
19969;SDS011;10146;47.754;9.566;2023-03-05T09:57:45;39.78;;;26.50;;
19969;SDS011;10146;47.754;9.566;2023-03-05T10:03:24;40.67;;;26.73;;
19969;SDS011;10146;47.754;9.566;2023-03-05T10:06:05;44.30;;;26.45;;
19969;SDS011;10146;47.754;9.566;2023-03-05T10:09:03;44.97;;;27.33;;
19969;SDS011;10146;47.754;9.566;2023-03-05T10:14:23;41.33;;;26.33;;
19969;SDS011;10146;47.754;9.566;2023-03-05T10:17:27;41.90;;;25.17;;
19969;SDS011;10146;47.754;9.566;2023-03-05T10:28:21;39.60;;;22.50;;
19969;SDS011;10146;47.754;9.566;2023-03-05T10:41:56;26.45;;;17.70;;
19969;SDS011;10146;47.754;9.566;2023-03-05T10:44:51;27.75;;;19.33;;
19969;SDS011;10146;47.754;9.566;2023-03-05T10:50:25;24.40;;;16.85;;
19969;SDS011;10146;47.754;9.566;2023-03-05T10:55:31;23.50;;;16.65;;
19969;SDS011;10146;47.754;9.566;2023-03-05T10:57:57;29.58;;;17.63;;
19969;SDS011;10146;47.754;9.566;2023-03-05T11:00:23;25.40;;;17.38;;
19969;SDS011;10146;47.754;9.566;2023-03-05T11:02:58;23.92;;;15.73;;
19969;SDS011;10146;47.754;9.566;2023-03-05T11:05:32;25.30;;;14.75;;
19969;SDS011;10146;47.754;9.566;2023-03-05T11:16:21;15.35;;;11.35;;
19969;SDS011;10146;47.754;9.566;2023-03-05T11:21:38;15.45;;;11.07;;
19969;SDS011;10146;47.754;9.566;2023-03-05T11:26:50;15.52;;;10.93;;
19969;SDS011;10146;47.754;9.566;2023-03-05T11:29:21;14.30;;;10.57;;
19969;SDS011;10146;47.754;9.566;2023-03-05T11:31:53;17.02;;;11.20;;
19969;SDS011;10146;47.754;9.566;2023-03-05T11:39:23;12.38;;;9.00;;
19969;SDS011;10146;47.754;9.566;2023-03-05T11:41:55;15.10;;;10.13;;
19969;SDS011;10146;47.754;9.566;2023-03-05T11:44:53;13.40;;;9.68;;
19969;SDS011;10146;47.754;9.566;2023-03-05T11:52:45;29.45;;;17.73;;
19969;SDS011;10146;47.754;9.566;2023-03-05T11:55:29;17.20;;;11.88;;
19969;SDS011;10146;47.754;9.566;2023-03-05T11:58:26;16.35;;;12.07;;
19969;SDS011;10146;47.754;9.566;2023-03-05T12:01:13;17.40;;;12.07;;
19969;SDS011;10146;47.754;9.566;2023-03-05T12:03:41;17.02;;;12.45;;
19969;SDS011;10146;47.754;9.566;2023-03-05T12:08:37;16.85;;;11.10;;
19969;SDS011;10146;47.754;9.566;2023-03-05T12:11:14;14.73;;;10.23;;
19969;SDS011;10146;47.754;9.566;2023-03-05T12:14:27;17.40;;;10.93;;
19969;SDS011;10146;47.754;9.566;2023-03-05T12:21:58;16.45;;;11.07;;
19969;SDS011;10146;47.754;9.566;2023-03-05T12:29:38;11.02;;;9.25;;
19969;SDS011;10146;47.754;9.566;2023-03-05T12:35:21;11.05;;;9.05;;
19969;SDS011;10146;47.754;9.566;2023-03-05T12:38:02;14.35;;;8.85;;
19969;SDS011;10146;47.754;9.566;2023-03-05T12:40:30;12.77;;;8.27;;
19969;SDS011;10146;47.754;9.566;2023-03-05T12:43:02;10.10;;;8.02;;
19969;SDS011;10146;47.754;9.566;2023-03-05T12:45:39;10.27;;;7.43;;
19969;SDS011;10146;47.754;9.566;2023-03-05T12:58:19;9.13;;;6.80;;
19969;SDS011;10146;47.754;9.566;2023-03-05T13:03:36;10.77;;;8.15;;
19969;SDS011;10146;47.754;9.566;2023-03-05T13:06:27;11.55;;;8.40;;
19969;SDS011;10146;47.754;9.566;2023-03-05T13:11:33;12.13;;;8.02;;
19969;SDS011;10146;47.754;9.566;2023-03-05T13:14:02;11.23;;;8.45;;
19969;SDS011;10146;47.754;9.566;2023-03-05T13:16:34;11.20;;;8.25;;
19969;SDS011;10146;47.754;9.566;2023-03-05T13:19:02;12.50;;;8.50;;
19969;SDS011;10146;47.754;9.566;2023-03-05T13:21:31;12.15;;;8.40;;
19969;SDS011;10146;47.754;9.566;2023-03-05T13:23:58;9.95;;;7.90;;
19969;SDS011;10146;47.754;9.566;2023-03-05T13:29:06;11.60;;;8.55;;
19969;SDS011;10146;47.754;9.566;2023-03-05T13:31:32;11.38;;;8.77;;
19969;SDS011;10146;47.754;9.566;2023-03-05T13:39:29;11.05;;;8.27;;
19969;SDS011;10146;47.754;9.566;2023-03-05T13:44:26;12.40;;;8.30;;
19969;SDS011;10146;47.754;9.566;2023-03-05T13:47:04;11.98;;;8.98;;
19969;SDS011;10146;47.754;9.566;2023-03-05T13:49:32;12.00;;;8.85;;
19969;SDS011;10146;47.754;9.566;2023-03-05T13:51:58;11.55;;;8.65;;
19969;SDS011;10146;47.754;9.566;2023-03-05T13:54:24;11.73;;;8.85;;
19969;SDS011;10146;47.754;9.566;2023-03-05T13:56:59;12.90;;;9.10;;
19969;SDS011;10146;47.754;9.566;2023-03-05T13:59:26;12.68;;;8.38;;
19969;SDS011;10146;47.754;9.566;2023-03-05T14:01:57;13.60;;;9.68;;
19969;SDS011;10146;47.754;9.566;2023-03-05T14:04:56;15.45;;;9.77;;
19969;SDS011;10146;47.754;9.566;2023-03-05T14:10:01;12.55;;;9.88;;
19969;SDS011;10146;47.754;9.566;2023-03-05T14:12:38;13.68;;;9.90;;
19969;SDS011;10146;47.754;9.566;2023-03-05T14:15:20;13.65;;;9.07;;
19969;SDS011;10146;47.754;9.566;2023-03-05T14:17:46;11.68;;;9.05;;
19969;SDS011;10146;47.754;9.566;2023-03-05T14:22:39;13.05;;;10.20;;
19969;SDS011;10146;47.754;9.566;2023-03-05T14:25:24;14.68;;;11.13;;
19969;SDS011;10146;47.754;9.566;2023-03-05T14:28:01;14.98;;;10.98;;
19969;SDS011;10146;47.754;9.566;2023-03-05T14:30:29;14.23;;;9.80;;
19969;SDS011;10146;47.754;9.566;2023-03-05T14:32:55;13.55;;;9.70;;
19969;SDS011;10146;47.754;9.566;2023-03-05T14:35:23;11.52;;;9.35;;
19969;SDS011;10146;47.754;9.566;2023-03-05T14:37:51;11.32;;;9.05;;
19969;SDS011;10146;47.754;9.566;2023-03-05T14:40:25;11.30;;;8.77;;
19969;SDS011;10146;47.754;9.566;2023-03-05T14:43:00;12.73;;;9.07;;
19969;SDS011;10146;47.754;9.566;2023-03-05T14:45:32;12.85;;;9.27;;
19969;SDS011;10146;47.754;9.566;2023-03-05T14:47:59;13.10;;;10.00;;
19969;SDS011;10146;47.754;9.566;2023-03-05T14:50:28;11.65;;;8.13;;
19969;SDS011;10146;47.754;9.566;2023-03-05T14:52:58;12.15;;;8.55;;
19969;SDS011;10146;47.754;9.566;2023-03-05T14:55:26;13.10;;;8.65;;
19969;SDS011;10146;47.754;9.566;2023-03-05T14:57:58;11.68;;;8.60;;
19969;SDS011;10146;47.754;9.566;2023-03-05T15:00:28;10.85;;;8.20;;
19969;SDS011;10146;47.754;9.566;2023-03-05T15:02:55;11.20;;;8.45;;
19969;SDS011;10146;47.754;9.566;2023-03-05T15:05:21;12.85;;;9.02;;
19969;SDS011;10146;47.754;9.566;2023-03-05T15:07:48;13.02;;;8.82;;
19969;SDS011;10146;47.754;9.566;2023-03-05T15:10:15;12.13;;;9.07;;
19969;SDS011;10146;47.754;9.566;2023-03-05T15:12:42;12.25;;;9.05;;
19969;SDS011;10146;47.754;9.566;2023-03-05T15:15:14;12.55;;;8.82;;
19969;SDS011;10146;47.754;9.566;2023-03-05T15:17:42;11.63;;;8.18;;
19969;SDS011;10146;47.754;9.566;2023-03-05T15:20:14;11.48;;;8.48;;
19969;SDS011;10146;47.754;9.566;2023-03-05T15:22:44;12.75;;;9.40;;
19969;SDS011;10146;47.754;9.566;2023-03-05T15:25:10;10.10;;;8.27;;
19969;SDS011;10146;47.754;9.566;2023-03-05T15:27:36;10.10;;;7.90;;
19969;SDS011;10146;47.754;9.566;2023-03-05T15:30:03;11.10;;;8.35;;
19969;SDS011;10146;47.754;9.566;2023-03-05T15:32:30;10.98;;;8.05;;
19969;SDS011;10146;47.754;9.566;2023-03-05T15:34:56;11.07;;;8.15;;
19969;SDS011;10146;47.754;9.566;2023-03-05T15:37:22;11.52;;;8.23;;
19969;SDS011;10146;47.754;9.566;2023-03-05T15:39:50;11.65;;;8.63;;
19969;SDS011;10146;47.754;9.566;2023-03-05T15:42:16;9.60;;;7.63;;
19969;SDS011;10146;47.754;9.566;2023-03-05T15:44:42;9.85;;;7.70;;
19969;SDS011;10146;47.754;9.566;2023-03-05T15:47:08;11.75;;;8.10;;
19969;SDS011;10146;47.754;9.566;2023-03-05T15:49:34;11.27;;;8.20;;
19969;SDS011;10146;47.754;9.566;2023-03-05T15:52:00;9.02;;;7.22;;
19969;SDS011;10146;47.754;9.566;2023-03-05T15:54:25;10.18;;;7.55;;
19969;SDS011;10146;47.754;9.566;2023-03-05T15:56:51;10.13;;;7.68;;
19969;SDS011;10146;47.754;9.566;2023-03-05T15:59:18;10.18;;;7.28;;
19969;SDS011;10146;47.754;9.566;2023-03-05T16:01:48;9.10;;;7.50;;
19969;SDS011;10146;47.754;9.566;2023-03-05T16:04:15;10.05;;;7.72;;
19969;SDS011;10146;47.754;9.566;2023-03-05T16:06:45;10.65;;;8.07;;
19969;SDS011;10146;47.754;9.566;2023-03-05T16:09:12;10.63;;;8.00;;
19969;SDS011;10146;47.754;9.566;2023-03-05T16:11:39;9.40;;;7.10;;
19969;SDS011;10146;47.754;9.566;2023-03-05T16:14:11;10.55;;;7.53;;
19969;SDS011;10146;47.754;9.566;2023-03-05T16:16:40;11.23;;;8.63;;